Time;durP1;ratioP1;P1;durP2;ratioP2;P2;SDS_P1;SDS_P2;PMS_P1;PMS_P2;Temp;Humidity;BMP_temperature;BMP_pressure;BME280_temperature;BME280_humidity;BME280_pressure;Samples;Min_cycle;Max_cycle;Signal;HPM_P1;HPM_P2
2022/08/18 00:01:08;;;;;;;39.47;33.05;;;21.00;99.90;;;;;;5091559;28;20028;-69
2022/08/18 00:03:34;;;;;;;41.97;34.97;;;20.90;99.90;;;;;;5091985;28;20032;-69
2022/08/18 00:06:00;;;;;;;40.75;33.72;;;20.90;99.90;;;;;;5091654;28;20503;-69
2022/08/18 00:08:28;;;;;;;38.60;34.15;;;20.90;99.90;;;;;;5091082;28;20036;-69
2022/08/18 00:10:55;;;;;;;42.90;33.50;;;20.90;99.90;;;;;;5091443;28;20133;-69
2022/08/18 00:13:21;;;;;;;42.15;34.60;;;20.90;99.90;;;;;;5091430;28;20035;-70
2022/08/18 00:15:46;;;;;;;40.10;35.70;;;20.80;99.90;;;;;;5091368;28;20043;-69
2022/08/18 00:18:12;;;;;;;39.00;33.47;;;20.80;99.90;;;;;;5089991;28;20032;-69
2022/08/18 00:20:39;;;;;;;43.88;36.75;;;20.80;99.90;;;;;;5090976;28;20036;-69
2022/08/18 00:23:05;;;;;;;40.97;34.88;;;20.70;99.90;;;;;;5089377;28;20063;-69
2022/08/18 00:25:31;;;;;;;40.65;34.67;;;20.70;99.90;;;;;;5091784;28;20488;-70
2022/08/18 00:27:57;;;;;;;44.75;36.88;;;20.80;99.90;;;;;;5091516;28;20024;-70
2022/08/18 00:30:23;;;;;;;41.95;34.42;;;20.80;99.90;;;;;;5091257;28;20493;-70
2022/08/18 00:32:58;;;;;;;39.75;34.00;;;20.80;99.90;;;;;;5089684;28;20028;-70
2022/08/18 00:35:29;;;;;;;43.00;34.95;;;20.90;99.90;;;;;;5091110;28;20039;-69
2022/08/18 00:37:57;;;;;;;41.42;36.17;;;20.80;99.90;;;;;;5090532;28;20020;-69
2022/08/18 00:40:30;;;;;;;41.63;34.42;;;20.70;99.90;;;;;;5091229;28;20036;-69
2022/08/18 00:43:02;;;;;;;41.80;34.67;;;20.80;99.90;;;;;;5090342;28;20643;-69
2022/08/18 00:45:35;;;;;;;42.40;34.35;;;20.80;99.90;;;;;;5091187;28;20036;-69
2022/08/18 00:48:03;;;;;;;42.85;35.55;;;20.80;99.90;;;;;;5090252;28;20035;-69
2022/08/18 00:50:35;;;;;;;41.63;33.95;;;20.80;99.90;;;;;;5089469;28;20131;-69
2022/08/18 00:53:10;;;;;;;42.40;35.47;;;20.60;99.90;;;;;;5087500;28;20024;-70
2022/08/18 00:55:40;;;;;;;42.28;35.95;;;20.70;99.90;;;;;;5088833;28;20109;-69
2022/08/18 00:58:15;;;;;;;39.63;35.00;;;20.70;99.90;;;;;;5089100;28;20119;-69
2022/08/18 01:00:43;;;;;;;41.65;34.75;;;20.70;99.90;;;;;;5089341;28;20027;-69
2022/08/18 01:03:13;;;;;;;40.53;33.67;;;20.70;99.90;;;;;;5090707;28;20512;-69
2022/08/18 01:05:44;;;;;;;40.40;33.97;;;20.60;99.90;;;;;;5090600;28;20037;-69
2022/08/18 01:08:13;;;;;;;41.00;33.95;;;20.60;99.90;;;;;;5090078;28;20039;-69
2022/08/18 01:10:40;;;;;;;43.80;35.70;;;20.60;99.90;;;;;;5089012;28;20028;-69
2022/08/18 01:13:07;;;;;;;41.05;35.35;;;20.60;99.90;;;;;;5090585;28;20020;-69
2022/08/18 01:15:34;;;;;;;40.67;34.22;;;20.60;99.90;;;;;;5090500;28;20492;-69
2022/08/18 01:23:52;;;;;;;50.33;39.35;;;20.80;99.90;;;;;;5090575;28;20055;-69
2022/08/18 01:26:20;;;;;;;52.17;41.95;;;20.90;99.90;;;;;;5089952;28;20039;-69
2022/08/18 01:28:48;;;;;;;49.05;41.50;;;20.90;99.90;;;;;;5090277;28;20035;-69
2022/08/18 01:31:36;;;;;;;50.50;41.25;;;20.90;99.90;;;;;;5089849;28;20032;-69
2022/08/18 01:34:03;;;;;;;;;;;20.90;99.90;;;;;;5090771;28;20141;-69
2022/08/18 01:36:30;;;;;;;49.53;39.55;;;20.90;99.90;;;;;;5089600;28;19958;-69
2022/08/18 01:38:58;;;;;;;50.90;40.95;;;20.90;99.90;;;;;;5090308;28;20020;-69
2022/08/18 01:41:25;;;;;;;48.83;40.70;;;20.90;99.90;;;;;;5090025;28;20502;-69
2022/08/18 01:43:51;;;;;;;55.65;42.80;;;21.00;99.90;;;;;;5090160;28;20442;-69
2022/08/18 01:46:20;;;;;;;51.13;42.45;;;21.00;99.90;;;;;;5089956;28;20452;-69
2022/08/18 01:48:47;;;;;;;52.70;42.28;;;21.00;99.90;;;;;;5090083;28;20154;-69
2022/08/18 01:51:14;;;;;;;52.95;42.92;;;21.00;99.90;;;;;;5089356;28;20053;-69
2022/08/18 01:53:40;;;;;;;55.92;44.08;;;20.90;99.90;;;;;;5090173;28;20116;-69
2022/08/18 01:56:08;;;;;;;55.85;44.78;;;20.90;99.90;;;;;;5089702;28;20060;-69
2022/08/18 01:58:35;;;;;;;54.85;44.60;;;20.90;99.90;;;;;;5089834;28;20062;-69
2022/08/18 02:01:02;;;;;;;56.20;44.25;;;20.90;99.90;;;;;;5089933;28;20020;-69
2022/08/18 02:03:38;;;;;;;53.28;42.63;;;20.90;99.90;;;;;;5088816;28;20032;-69
2022/08/18 02:06:08;;;;;;;59.38;44.70;;;20.90;99.90;;;;;;5089587;28;20023;-69
2022/08/18 02:08:35;;;;;;;57.75;45.28;;;20.90;99.90;;;;;;5089667;28;20028;-69
2022/08/18 02:11:02;;;;;;;58.00;46.13;;;20.90;99.90;;;;;;5089687;28;20032;-69
2022/08/18 02:13:28;;;;;;;61.05;46.25;;;20.90;99.90;;;;;;5089848;28;20063;-69
2022/08/18 02:15:54;;;;;;;62.00;46.92;;;20.80;99.90;;;;;;5089644;28;20036;-69
2022/08/18 02:18:26;;;;;;;59.08;45.63;;;20.80;99.90;;;;;;5089688;28;20016;-69
2022/08/18 02:20:56;;;;;;;63.05;46.83;;;20.90;99.90;;;;;;5088093;28;20484;-69
2022/08/18 02:23:22;;;;;;;69.40;49.35;;;20.80;99.90;;;;;;5089349;28;20035;-69
2022/08/18 02:25:49;;;;;;;65.38;47.97;;;20.80;99.90;;;;;;5089619;28;20572;-69
2022/08/18 02:28:15;;;;;;;70.72;50.10;;;20.80;99.90;;;;;;5089721;28;20060;-69
2022/08/18 02:30:41;;;;;;;74.38;51.20;;;20.70;99.90;;;;;;5089485;28;20039;-69
2022/08/18 02:33:10;;;;;;;76.00;53.28;;;20.80;99.90;;;;;;5089793;28;20032;-69
2022/08/18 02:35:37;;;;;;;80.30;55.10;;;20.80;99.90;;;;;;5089762;28;20028;-69
2022/08/18 02:38:06;;;;;;;78.18;53.70;;;20.70;99.90;;;;;;5088177;28;20472;-70
2022/08/18 02:40:34;;;;;;;78.78;55.92;;;20.70;99.90;;;;;;5089823;28;20024;-70
2022/08/18 02:43:08;;;;;;;78.60;55.67;;;20.70;99.90;;;;;;5089895;28;20043;-70
2022/08/18 02:45:36;;;;;;;81.45;56.63;;;20.70;99.90;;;;;;5071987;28;20341;-70
2022/08/18 02:48:02;;;;;;;;;;;20.70;99.90;;;;;;5090507;28;20020;-70
2022/08/18 02:50:28;;;;;;;77.45;54.53;;;20.80;99.90;;;;;;5089484;28;19916;-70
2022/08/18 02:52:54;;;;;;;77.25;54.65;;;20.70;99.90;;;;;;5089164;28;20446;-70
2022/08/18 02:55:21;;;;;;;82.50;57.67;;;20.70;99.90;;;;;;5089763;28;20024;-70
2022/08/18 02:57:47;;;;;;;89.28;58.55;;;20.60;99.90;;;;;;5088130;28;20032;-70
2022/08/18 03:00:16;;;;;;;84.43;58.63;;;20.60;99.90;;;;;;5091734;28;20052;-70
2022/08/18 03:02:47;;;;;;;85.05;58.65;;;20.70;99.90;;;;;;5091953;28;20100;-70
2022/08/18 03:05:14;;;;;;;81.13;56.10;;;20.60;99.90;;;;;;5093450;28;20020;-70
2022/08/18 03:07:41;;;;;;;74.00;51.22;;;20.60;99.90;;;;;;5092703;28;20043;-70
2022/08/18 03:10:08;;;;;;;72.05;48.35;;;20.60;99.90;;;;;;5093141;28;20024;-70
2022/08/18 03:12:35;;;;;;;66.10;48.13;;;20.50;99.90;;;;;;5092964;28;20035;-70
2022/08/18 03:15:02;;;;;;;65.15;45.22;;;20.40;99.90;;;;;;5093274;28;20504;-70
2022/08/18 03:17:28;;;;;;;65.85;45.45;;;20.40;99.90;;;;;;5092593;28;20113;-70
2022/08/18 03:19:54;;;;;;;69.30;45.95;;;20.40;99.90;;;;;;5092793;28;20174;-70
2022/08/18 03:22:20;;;;;;;67.38;44.65;;;20.40;99.90;;;;;;5092248;28;20535;-69
2022/08/18 03:24:45;;;;;;;65.07;44.38;;;20.30;99.90;;;;;;5092970;28;20148;-70
2022/08/18 03:27:11;;;;;;;64.78;44.65;;;20.40;99.90;;;;;;5092417;28;20028;-70
2022/08/18 03:29:37;;;;;;;66.25;45.90;;;20.40;99.90;;;;;;5092879;28;20086;-70
2022/08/18 03:32:05;;;;;;;66.18;44.03;;;20.40;99.90;;;;;;5092444;28;20032;-69
2022/08/18 03:34:32;;;;;;;64.47;42.70;;;20.40;99.90;;;;;;5092858;28;20032;-69
2022/08/18 03:36:59;;;;;;;62.58;42.08;;;20.40;99.90;;;;;;5090778;28;20040;-70
2022/08/18 03:39:26;;;;;;;61.35;41.75;;;20.40;99.90;;;;;;5092260;28;20024;-69
2022/08/18 03:41:54;;;;;;;61.75;42.72;;;20.40;99.90;;;;;;5092393;28;20020;-68
2022/08/18 03:44:21;;;;;;;61.47;42.00;;;20.40;99.90;;;;;;5092709;28;20028;-70
2022/08/18 03:46:49;;;;;;;57.17;39.78;;;20.50;99.90;;;;;;5092198;28;20529;-71
2022/08/18 03:49:16;;;;;;;60.60;43.15;;;20.50;99.90;;;;;;5092381;28;20028;-68
2022/08/18 03:51:47;;;;;;;63.80;43.58;;;20.50;99.90;;;;;;5090506;28;20032;-68
2022/08/18 03:54:16;;;;;;;58.25;40.45;;;20.50;99.90;;;;;;5092641;28;20032;-68
2022/08/18 03:56:44;;;;;;;61.40;42.20;;;20.60;99.90;;;;;;5091854;28;20047;-68
2022/08/18 03:59:16;;;;;;;63.50;41.80;;;20.60;99.90;;;;;;5091875;28;20080;-68
2022/08/18 04:01:44;;;;;;;60.15;42.55;;;20.60;99.90;;;;;;5091575;28;20028;-69
2022/08/18 04:04:13;;;;;;;62.17;41.17;;;20.60;99.90;;;;;;5092117;28;20028;-68
2022/08/18 04:06:50;;;;;;;58.08;41.25;;;20.60;99.90;;;;;;5091236;28;20055;-69
2022/08/18 04:09:17;;;;;;;63.53;43.55;;;20.60;99.90;;;;;;5091846;28;20036;-68
2022/08/18 04:11:43;;;;;;;58.30;41.22;;;20.70;99.90;;;;;;5091435;28;20165;-68
2022/08/18 04:14:13;;;;;;;60.97;41.28;;;20.70;99.90;;;;;;5091803;28;20028;-68
2022/08/18 04:16:39;;;;;;;60.88;41.45;;;20.70;99.90;;;;;;5091206;28;20527;-68
2022/08/18 04:19:06;;;;;;;62.38;43.08;;;20.70;99.90;;;;;;5091312;28;20178;-68
2022/08/18 04:21:35;;;;;;;56.13;39.55;;;20.70;99.90;;;;;;5091092;28;20533;-69
2022/08/18 04:24:06;;;;;;;56.92;40.45;;;20.70;99.90;;;;;;5091731;28;20099;-69
2022/08/18 04:26:35;;;;;;;58.10;40.17;;;20.70;99.90;;;;;;5089972;28;20213;-68
2022/08/18 04:29:01;;;;;;;;;;;20.70;99.90;;;;;;5090584;28;20548;-69
2022/08/18 04:31:28;;;;;;;58.83;38.50;;;20.70;99.90;;;;;;5091096;28;19931;-69
2022/08/18 04:33:56;;;;;;;61.67;41.83;;;20.70;99.90;;;;;;5091718;28;20024;-68
2022/08/18 04:36:22;;;;;;;62.17;42.38;;;20.70;99.90;;;;;;5089289;28;20036;-69
2022/08/18 04:38:48;;;;;;;60.58;41.10;;;20.70;99.90;;;;;;5089880;28;20431;-68
2022/08/18 04:41:15;;;;;;;59.55;41.30;;;20.70;99.90;;;;;;5091096;28;20027;-69
2022/08/18 04:43:41;;;;;;;60.28;41.67;;;20.70;99.90;;;;;;5090999;28;20105;-68
2022/08/18 04:46:07;;;;;;;57.97;39.00;;;20.70;99.90;;;;;;5090819;28;20453;-67
2022/08/18 04:48:37;;;;;;;54.38;38.47;;;20.70;99.90;;;;;;5090856;28;20024;-68
2022/08/18 04:51:18;;;;;;;53.75;39.03;;;20.70;99.90;;;;;;5090639;28;20048;-67
2022/08/18 04:53:45;;;;;;;55.75;39.25;;;20.70;99.90;;;;;;5089475;28;20036;-67
2022/08/18 04:56:26;;;;;;;51.53;37.75;;;20.70;99.90;;;;;;5088884;28;20402;-67
2022/08/18 04:58:57;;;;;;;56.05;40.03;;;20.70;99.90;;;;;;5090616;28;20184;-68
2022/08/18 05:01:27;;;;;;;58.05;40.75;;;20.70;99.90;;;;;;5090412;28;20028;-67
2022/08/18 05:03:53;;;;;;;57.67;40.65;;;20.70;99.90;;;;;;5090807;28;20534;-67
2022/08/18 05:06:24;;;;;;;58.53;40.55;;;20.70;99.90;;;;;;5090507;28;20446;-68
2022/08/18 05:09:03;;;;;;;49.72;37.13;;;20.70;99.90;;;;;;5090665;28;20091;-68
2022/08/18 05:11:34;;;;;;;55.10;38.25;;;20.70;99.90;;;;;;5090582;28;20043;-68
2022/08/18 05:14:03;;;;;;;52.67;38.40;;;20.70;99.90;;;;;;5090674;28;20059;-68
2022/08/18 05:16:35;;;;;;;56.33;39.75;;;20.70;99.90;;;;;;5090101;28;20131;-68
2022/08/18 05:19:05;;;;;;;57.10;39.97;;;20.70;99.90;;;;;;5090007;28;20437;-67
2022/08/18 05:21:33;;;;;;;53.95;39.03;;;20.70;99.90;;;;;;5089375;28;20115;-67
2022/08/18 05:23:59;;;;;;;49.53;36.05;;;20.80;99.90;;;;;;5089671;28;20024;-67
2022/08/18 05:26:26;;;;;;;55.08;39.55;;;20.80;99.90;;;;;;5089774;28;20024;-68
2022/08/18 05:28:53;;;;;;;52.92;38.30;;;20.80;99.90;;;;;;5089766;28;20089;-68
2022/08/18 05:31:21;;;;;;;55.70;39.45;;;20.80;99.90;;;;;;5089902;28;20028;-67
2022/08/18 05:33:48;;;;;;;52.83;37.40;;;20.80;99.90;;;;;;5090160;28;20035;-67
2022/08/18 05:36:14;;;;;;;49.25;35.75;;;20.80;99.90;;;;;;5089357;28;20370;-67
2022/08/18 05:39:10;;;;;;;57.35;39.00;;;20.80;99.90;;;;;;5090075;28;20035;-67
2022/08/18 05:41:45;;;;;;;54.90;39.13;;;20.80;99.90;;;;;;5073713;28;20040;-68
2022/08/18 05:44:17;;;;;;;56.88;38.00;;;20.80;99.90;;;;;;5090552;28;20384;-67
2022/08/18 05:47:10;;;;;;;54.58;38.38;;;20.80;99.90;;;;;;5088358;28;20028;-68
2022/08/18 05:49:36;;;;;;;57.65;40.67;;;20.80;99.90;;;;;;5089688;28;20050;-67
2022/08/18 05:52:16;;;;;;;57.72;41.13;;;20.80;99.90;;;;;;5088076;28;20118;-67
2022/08/18 05:57:41;;;;;;;59.55;40.55;;;20.80;99.90;;;;;;5089565;28;20056;-67
2022/08/18 06:00:10;;;;;;;60.15;40.20;;;20.80;99.90;;;;;;5089489;28;20024;-67
2022/08/18 06:02:53;;;;;;;63.70;42.80;;;20.80;99.90;;;;;;5089702;28;20485;-67
2022/08/18 06:05:43;;;;;;;61.80;40.05;;;20.80;99.90;;;;;;5090174;28;20054;-67
2022/08/18 06:08:15;;;;;;;58.60;40.28;;;20.80;99.90;;;;;;5088959;28;20032;-67
2022/08/18 06:10:46;;;;;;;57.25;38.65;;;20.80;99.90;;;;;;5089486;28;20380;-68
2022/08/18 06:13:13;;;;;;;57.55;38.30;;;20.80;99.90;;;;;;5089873;28;20032;-67
2022/08/18 06:15:51;;;;;;;60.78;41.40;;;20.80;99.90;;;;;;5089537;28;20452;-67
2022/08/18 06:18:20;;;;;;;62.92;40.95;;;20.80;99.90;;;;;;5089629;28;20024;-67
2022/08/18 06:21:09;;;;;;;116.05;47.00;;;20.80;99.90;;;;;;5089271;28;20069;-67
2022/08/18 06:24:12;;;;;;;113.18;52.00;;;20.80;99.90;;;;;;5089540;28;20028;-68
2022/08/18 06:27:00;;;;;;;63.95;40.60;;;20.90;99.90;;;;;;5089538;28;20037;-67
2022/08/18 06:30:04;;;;;;;65.38;38.72;;;20.90;99.90;;;;;;5089797;28;20028;-67
2022/08/18 06:32:42;;;;;;;63.13;40.10;;;20.90;99.90;;;;;;5082849;28;20488;-67
2022/08/18 06:35:26;;;;;;;63.13;39.88;;;20.90;99.90;;;;;;5090620;28;20039;-67
2022/08/18 06:40:46;;;;;;;60.97;39.45;;;20.90;99.90;;;;;;5088564;28;20016;-67
2022/08/18 06:43:15;;;;;;;63.10;40.70;;;20.90;99.90;;;;;;5084136;28;20023;-68
2022/08/18 06:45:45;;;;;;;63.75;40.53;;;20.90;99.90;;;;;;5090982;28;20081;-68
2022/08/18 06:48:33;;;;;;;61.17;39.75;;;20.90;99.90;;;;;;5093060;28;20020;-68
2022/08/18 06:51:01;;;;;;;66.60;41.88;;;20.90;99.90;;;;;;5093126;28;20039;-68
2022/08/18 06:53:54;;;;;;;65.13;40.33;;;21.00;99.90;;;;;;5092960;28;20054;-68
2022/08/18 06:56:40;;;;;;;59.80;38.75;;;21.00;99.90;;;;;;5091181;28;20047;-70
2022/08/18 06:59:15;;;;;;;58.00;39.50;;;20.90;99.90;;;;;;5082003;28;20553;-68
2022/08/18 07:01:42;;;;;;;63.10;41.63;;;21.00;99.90;;;;;;5092570;28;20074;-68
2022/08/18 07:04:08;;;;;;;60.83;40.20;;;21.00;99.90;;;;;;5093102;28;20030;-69
2022/08/18 07:06:34;;;;;;;57.53;38.95;;;21.00;99.90;;;;;;5090653;28;20159;-70
2022/08/18 07:09:23;;;;;;;56.20;37.80;;;21.00;99.90;;;;;;5092723;28;20120;-69
2022/08/18 07:12:06;;;;;;;;;;;21.00;99.90;;;;;;5093327;28;20035;-68
2022/08/18 07:14:40;;;;;;;;;;;21.10;99.90;;;;;;5094063;28;20047;-69
2022/08/18 07:17:07;;;;;;;;;;;21.10;99.90;;;;;;5092380;28;20036;-68
2022/08/18 07:19:33;;;;;;;;;;;21.10;99.90;;;;;;5092134;28;19919;-68
2022/08/18 07:22:06;;;;;;;;;;;21.10;99.90;;;;;;5094079;28;20214;-67
2022/08/18 07:24:42;;;;;;;;;;;21.10;99.90;;;;;;5093953;28;19919;-67
2022/08/18 07:27:08;;;;;;;;;;;21.20;99.90;;;;;;5093726;28;19949;-71
2022/08/18 07:29:36;;;;;;;;;;;21.10;99.90;;;;;;5092982;28;19981;-70
2022/08/18 07:32:16;;;;;;;;;;;21.20;99.90;;;;;;5092903;28;19912;-69
2022/08/18 07:34:45;;;;;;;;;;;21.30;99.90;;;;;;5091973;28;19915;-69
2022/08/18 07:37:20;;;;;;;;;;;21.40;99.90;;;;;;5107747;28;20537;-69
2022/08/18 07:39:50;;;;;;;;;;;21.40;99.90;;;;;;5092608;28;19915;-69
2022/08/18 07:42:31;;;;;;;;;;;21.50;99.90;;;;;;5092642;28;20295;-69
2022/08/18 07:45:17;;;;;;;;;;;21.50;99.90;;;;;;5108065;28;19908;-71
2022/08/18 07:47:43;;;;;;;;;;;21.60;99.90;;;;;;5077676;28;20004;-69
2022/08/18 07:50:10;;;;;;;;;;;21.70;99.90;;;;;;5092926;28;20012;-69
2022/08/18 07:52:44;;;;;;;;;;;21.70;99.90;;;;;;5091980;28;19915;-70
2022/08/18 07:55:18;;;;;;;;;;;21.70;99.90;;;;;;5091321;28;19959;-69
2022/08/18 07:57:52;;;;;;;;;;;21.70;99.90;;;;;;5092102;28;19988;-70
2022/08/18 08:00:20;;;;;;;;;;;21.70;99.90;;;;;;5092244;28;19962;-70
2022/08/18 09:46:59;;;;;;;21.90;17.67;;;22.00;99.90;;;;;;5087253;27;20117;-73
2022/08/18 09:49:25;;;;;;;22.98;17.58;;;22.00;99.90;;;;;;5072790;28;20172;-69
2022/08/18 09:51:54;;;;;;;23.17;17.63;;;22.10;99.90;;;;;;5107079;28;20062;-72
2022/08/18 09:54:23;;;;;;;23.00;17.38;;;22.10;99.90;;;;;;5089609;28;20031;-74
2022/08/18 09:56:49;;;;;;;21.98;17.92;;;22.10;99.90;;;;;;5088991;28;20042;-67
2022/08/18 09:59:44;;;;;;;20.00;15.88;;;22.10;99.90;;;;;;5107400;28;20494;-65
2022/08/18 10:02:26;;;;;;;20.85;16.35;;;22.00;99.90;;;;;;5098143;28;20043;-66
2022/08/18 10:05:15;;;;;;;21.55;17.55;;;21.90;99.90;;;;;;5107612;28;20038;-66
2022/08/18 10:08:13;;;;;;;20.00;16.98;;;21.80;99.90;;;;;;5106615;28;20103;-65
2022/08/18 10:11:08;;;;;;;23.70;19.30;;;21.70;99.90;;;;;;5072835;28;20028;-66
2022/08/18 10:13:48;;;;;;;23.83;19.17;;;21.60;99.90;;;;;;5085445;28;20028;-66
2022/08/18 10:16:55;;;;;;;21.20;17.63;;;21.60;99.90;;;;;;5106979;28;20071;-66
2022/08/18 10:19:37;;;;;;;24.33;19.38;;;21.60;99.90;;;;;;5102058;28;20119;-66
2022/08/18 10:22:06;;;;;;;20.70;16.85;;;21.50;99.90;;;;;;5106625;28;20028;-66
2022/08/18 10:24:55;;;;;;;;;;;21.50;99.90;;;;;;5107581;28;20031;-66
2022/08/18 10:27:45;;;;;;;20.70;17.00;;;21.50;99.90;;;;;;5095819;28;20341;-65
2022/08/18 10:30:33;;;;;;;19.52;15.57;;;21.50;99.90;;;;;;5106984;28;20144;-66
2022/08/18 10:33:01;;;;;;;18.45;14.70;;;21.40;99.90;;;;;;5106627;28;20039;-66
2022/08/18 10:35:36;;;;;;;19.27;15.60;;;21.50;99.90;;;;;;5106971;28;20053;-68
2022/08/18 10:38:08;;;;;;;21.65;15.80;;;21.40;99.90;;;;;;5106282;28;20031;-66
2022/08/18 10:40:35;;;;;;;17.75;14.52;;;21.50;99.90;;;;;;5105625;28;20027;-66
2022/08/18 10:43:07;;;;;;;18.25;14.63;;;21.50;99.90;;;;;;5105924;28;20372;-65
2022/08/18 10:45:45;;;;;;;20.85;17.15;;;21.50;99.90;;;;;;5105302;28;20032;-66
2022/08/18 10:48:28;;;;;;;17.42;15.60;;;21.50;99.90;;;;;;5106458;28;20031;-64
2022/08/18 10:51:16;;;;;;;18.55;15.40;;;21.50;99.90;;;;;;5105953;28;20115;-64
2022/08/18 10:54:04;;;;;;;23.00;18.17;;;21.50;99.90;;;;;;5106477;28;20032;-64
2022/08/18 10:56:39;;;;;;;22.52;17.58;;;21.50;99.90;;;;;;5103103;28;20162;-64
2022/08/18 10:59:16;;;;;;;25.60;18.42;;;21.50;99.90;;;;;;5092512;28;20054;-64
2022/08/18 11:02:19;;;;;;;19.58;17.48;;;21.60;99.90;;;;;;5092703;28;20035;-64
2022/08/18 11:04:47;;;;;;;22.90;18.63;;;21.50;99.90;;;;;;5092535;28;20032;-65
2022/08/18 11:07:18;;;;;;;25.27;17.63;;;21.50;99.90;;;;;;5056878;28;20024;-63
2022/08/18 11:09:50;;;;;;;24.70;19.67;;;21.50;99.90;;;;;;5092043;28;20068;-66
2022/08/18 11:12:58;;;;;;;23.73;16.95;;;21.50;99.90;;;;;;5092071;28;20055;-64
2022/08/18 11:15:34;;;;;;;22.83;19.67;;;21.60;99.90;;;;;;5092125;28;20035;-65
2022/08/18 11:18:10;;;;;;;21.42;16.80;;;21.50;99.90;;;;;;5091448;28;20034;-64
2022/08/18 11:20:37;;;;;;;24.25;18.90;;;21.50;99.90;;;;;;5092029;28;20526;-63
2022/08/18 11:23:10;;;;;;;21.08;17.95;;;21.50;99.90;;;;;;5090109;28;20532;-64
2022/08/18 11:25:38;;;;;;;21.10;18.75;;;21.50;99.90;;;;;;5091555;28;20451;-64
2022/08/18 11:28:28;;;;;;;25.73;19.17;;;21.40;99.90;;;;;;5090834;28;20100;-64
2022/08/18 11:30:55;;;;;;;18.45;14.77;;;21.50;99.90;;;;;;5090700;28;20021;-65
2022/08/18 11:33:21;;;;;;;20.02;15.43;;;21.50;99.90;;;;;;5071007;28;20500;-63
2022/08/18 11:35:56;;;;;;;17.75;14.75;;;21.50;99.90;;;;;;5091050;28;20031;-64
2022/08/18 11:38:23;;;;;;;19.52;15.52;;;21.50;99.90;;;;;;5090346;28;20418;-64
2022/08/18 11:40:53;;;;;;;21.35;17.77;;;21.50;99.90;;;;;;5090439;28;20851;-64
2022/08/18 11:43:32;;;;;;;25.98;21.92;;;21.50;99.90;;;;;;5089858;28;20035;-64
2022/08/18 11:46:12;;;;;;;27.35;21.15;;;21.50;99.90;;;;;;5090395;28;20023;-64
2022/08/18 11:48:44;;;;;;;23.20;19.55;;;21.50;99.90;;;;;;5075135;28;20020;-64
2022/08/18 11:51:26;;;;;;;23.92;18.20;;;21.50;99.90;;;;;;5087742;28;20024;-64
2022/08/18 11:53:51;;;;;;;20.35;17.17;;;21.60;99.90;;;;;;5090288;28;20028;-65
2022/08/18 11:56:20;;;;;;;22.75;18.95;;;21.60;99.90;;;;;;5090131;28;20043;-64
2022/08/18 11:58:51;;;;;;;;;;;21.60;99.90;;;;;;5091215;28;20024;-65
2022/08/18 12:01:31;;;;;;;22.52;19.83;;;21.70;99.90;;;;;;5090385;28;19908;-66
2022/08/18 12:04:12;;;;;;;20.85;17.00;;;21.60;99.90;;;;;;5091242;28;20028;-65
2022/08/18 12:06:59;;;;;;;15.05;13.23;;;21.70;99.90;;;;;;5090299;28;20040;-65
2022/08/18 12:09:34;;;;;;;13.52;10.88;;;21.70;99.90;;;;;;5090388;28;20144;-66
2022/08/18 12:12:17;;;;;;;13.85;12.35;;;21.70;99.90;;;;;;5090791;28;20028;-65
2022/08/18 12:14:52;;;;;;;15.00;12.35;;;21.80;99.90;;;;;;5089627;28;20110;-68
2022/08/18 12:17:18;;;;;;;15.55;12.90;;;21.80;99.90;;;;;;5090792;28;20032;-67
2022/08/18 12:19:44;;;;;;;12.80;11.48;;;21.70;99.90;;;;;;5090957;28;20437;-65
2022/08/18 12:22:17;;;;;;;11.60;9.70;;;21.70;99.90;;;;;;5072612;28;20024;-65
2022/08/18 12:24:45;;;;;;;10.68;7.85;;;21.70;99.90;;;;;;5091063;28;20428;-65
2022/08/18 12:27:14;;;;;;;10.45;8.63;;;21.80;99.90;;;;;;5090827;28;20035;-65
2022/08/18 12:29:40;;;;;;;10.95;8.13;;;21.90;99.90;;;;;;5090584;28;20111;-65
2022/08/18 12:32:06;;;;;;;9.93;8.65;;;21.90;99.90;;;;;;5090804;28;20035;-65
2022/08/18 12:34:32;;;;;;;9.75;8.00;;;21.90;99.90;;;;;;5090782;28;20035;-66
2022/08/18 12:37:02;;;;;;;10.32;9.02;;;21.90;99.90;;;;;;5090084;28;20040;-65
2022/08/18 12:39:29;;;;;;;11.80;9.00;;;21.90;99.90;;;;;;5090577;28;20032;-65
2022/08/18 12:41:56;;;;;;;9.95;8.95;;;21.90;99.90;;;;;;5090383;28;20043;-65
2022/08/18 12:44:22;;;;;;;12.30;9.52;;;21.90;99.90;;;;;;5090651;28;20077;-65
2022/08/18 12:46:48;;;;;;;10.27;9.18;;;21.90;99.90;;;;;;5089735;28;20031;-66
2022/08/18 12:49:17;;;;;;;9.90;8.38;;;21.90;99.90;;;;;;5090373;28;20035;-66
2022/08/18 12:51:44;;;;;;;10.93;9.52;;;21.90;99.90;;;;;;5089823;28;20083;-65
2022/08/18 12:54:10;;;;;;;11.13;9.02;;;22.00;99.90;;;;;;5072703;28;20111;-67
2022/08/18 12:56:36;;;;;;;11.05;9.80;;;21.90;99.90;;;;;;5089955;28;20032;-66
2022/08/18 12:59:04;;;;;;;8.52;7.72;;;22.00;99.90;;;;;;5090590;28;20073;-66
2022/08/18 13:01:31;;;;;;;9.85;8.85;;;22.00;99.90;;;;;;5090657;28;20085;-66
2022/08/18 13:03:58;;;;;;;10.25;8.98;;;22.00;99.90;;;;;;5090681;28;20036;-66
2022/08/18 13:06:24;;;;;;;7.95;7.15;;;22.00;99.90;;;;;;5089995;28;20032;-66
2022/08/18 13:08:54;;;;;;;9.35;7.50;;;22.00;99.90;;;;;;5090539;28;20460;-66
2022/08/18 13:11:20;;;;;;;8.57;7.53;;;22.10;99.90;;;;;;5071992;28;20549;-66
2022/08/18 13:13:47;;;;;;;8.38;6.43;;;22.20;99.90;;;;;;5090183;28;20533;-66
2022/08/18 13:16:13;;;;;;;9.70;7.90;;;22.20;99.90;;;;;;5089889;28;20024;-68
2022/08/18 13:18:43;;;;;;;8.43;7.53;;;22.20;99.90;;;;;;5089856;28;20331;-66
2022/08/18 13:21:11;;;;;;;8.25;7.13;;;22.10;99.90;;;;;;5089401;28;20028;-66
2022/08/18 13:23:38;;;;;;;9.27;7.03;;;22.10;99.90;;;;;;5089846;28;20116;-66
2022/08/18 13:26:06;;;;;;;8.95;7.88;;;22.20;99.90;;;;;;5071488;28;20036;-66
2022/08/18 13:28:34;;;;;;;8.38;7.25;;;22.20;99.90;;;;;;5089767;28;20036;-66
2022/08/18 13:31:01;;;;;;;9.63;8.13;;;22.20;99.90;;;;;;5089581;28;20473;-66
2022/08/18 13:33:27;;;;;;;8.77;7.82;;;22.20;99.90;;;;;;5089921;28;20032;-67
2022/08/18 13:35:53;;;;;;;7.40;6.53;;;22.20;99.90;;;;;;5089767;28;20366;-68
2022/08/18 13:38:22;;;;;;;8.10;7.30;;;22.30;99.90;;;;;;5089424;28;20032;-66
2022/08/18 13:40:51;;;;;;;11.02;8.20;;;22.30;99.90;;;;;;5089523;28;20093;-67
2022/08/18 13:43:22;;;;;;;8.07;7.03;;;22.30;99.90;;;;;;5089774;28;20028;-67
2022/08/18 13:45:49;;;;;;;8.70;7.35;;;22.40;99.90;;;;;;5089286;28;20046;-67
2022/08/18 13:48:16;;;;;;;8.15;7.13;;;22.30;99.90;;;;;;5071394;28;20035;-67
2022/08/18 13:50:42;;;;;;;9.15;8.23;;;22.40;99.90;;;;;;5089207;28;20024;-68
2022/08/18 13:53:20;;;;;;;10.43;9.32;;;22.40;99.90;;;;;;5089144;28;20032;-67
2022/08/18 13:55:47;;;;;;;10.30;9.30;;;22.30;99.90;;;;;;5089570;28;20140;-67
2022/08/18 13:58:14;;;;;;;9.50;8.50;;;22.30;99.90;;;;;;5089342;28;20028;-68
2022/08/18 14:00:40;;;;;;;11.10;9.25;;;22.20;99.90;;;;;;5071302;28;20032;-67
2022/08/18 14:03:10;;;;;;;9.20;8.07;;;22.20;99.90;;;;;;5089714;28;20107;-67
2022/08/18 14:05:36;;;;;;;8.38;7.22;;;22.20;99.90;;;;;;5089503;28;20024;-67
2022/08/18 14:08:03;;;;;;;9.15;6.97;;;22.20;99.90;;;;;;5089213;28;20028;-67
2022/08/18 14:10:30;;;;;;;8.10;6.80;;;22.20;99.90;;;;;;5089491;28;20360;-68
2022/08/18 14:12:59;;;;;;;7.18;6.22;;;22.30;99.90;;;;;;5089161;28;20016;-67
2022/08/18 14:15:26;;;;;;;9.02;6.88;;;22.50;99.90;;;;;;5089745;28;20036;-68
2022/08/18 14:17:52;;;;;;;7.57;6.63;;;22.50;99.90;;;;;;5088777;28;20032;-67
2022/08/18 14:28:33;;;;;;;10.02;6.22;;;22.80;99.90;;;;;;5087678;28;20070;-68
2022/08/18 14:31:02;;;;;;;9.30;6.72;;;22.90;99.50;;;;;;5053525;28;20389;-67
2022/08/18 14:33:30;;;;;;;7.47;5.40;;;23.20;98.90;;;;;;5091837;28;20024;-68
2022/08/18 14:35:56;;;;;;;6.67;5.67;;;23.30;98.90;;;;;;5092327;28;20032;-69
2022/08/18 14:38:23;;;;;;;8.43;5.75;;;23.50;97.80;;;;;;5091426;28;20046;-69
2022/08/18 14:40:49;;;;;;;7.15;5.63;;;23.70;99.90;;;;;;5073818;28;20490;-68
2022/08/18 14:43:20;;;;;;;7.38;5.25;;;23.90;98.90;;;;;;5072083;28;20775;-67
2022/08/18 14:45:47;;;;;;;7.65;5.22;;;24.00;99.70;;;;;;5070233;28;20405;-69
2022/08/18 14:48:16;;;;;;;8.55;6.55;;;24.30;96.80;;;;;;5088692;28;20036;-68
2022/08/18 14:50:44;;;;;;;7.65;5.57;;;24.20;99.60;;;;;;5092013;28;20066;-69
2022/08/18 14:53:12;;;;;;;10.35;6.38;;;24.40;98.80;;;;;;5091577;28;20186;-67
2022/08/18 14:55:38;;;;;;;8.68;6.22;;;24.40;99.90;;;;;;5091503;28;20044;-68
2022/08/18 14:58:04;;;;;;;8.23;6.43;;;24.30;99.90;;;;;;5091326;28;20043;-67
2022/08/18 15:00:30;;;;;;;7.45;5.60;;;24.30;99.90;;;;;;5091514;28;20065;-66
2022/08/18 15:02:56;;;;;;;15.50;6.85;;;24.30;99.90;;;;;;5056859;28;20412;-67